Time;durP1;ratioP1;P1;durP2;ratioP2;P2;SDS_P1;SDS_P2;PMS_P1;PMS_P2;Temp;Humidity;BMP_temperature;BMP_pressure;BME280_temperature;BME280_humidity;BME280_pressure;Samples;Min_cycle;Max_cycle;Signal;HPM_P1;HPM_P2
2021/12/11 00:01:00;;;;;;;11.60;8.80;;;;;;;9.28;72.48;99762.38;24533;1353;3048976;-58
2021/12/11 00:03:38;;;;;;;14.40;9.50;;;;;;;9.00;73.55;99765.48;24506;1351;3053078;-60
2021/12/11 00:06:11;;;;;;;13.70;9.00;;;;;;;8.78;74.45;99769.90;24489;1358;3055287;-57
2021/12/11 00:08:42;;;;;;;13.60;9.60;;;;;;;8.58;75.10;99767.16;24551;1359;3057359;-59
2021/12/11 00:11:18;;;;;;;13.80;8.20;;;;;;;8.46;75.53;99757.97;24523;1352;3026589;-58
2021/12/11 00:13:47;;;;;;;9.80;6.80;;;;;;;8.90;74.44;99757.41;24493;1355;3052993;-60
2021/12/11 00:16:18;;;;;;;12.50;8.20;;;;;;;9.36;72.71;99755.86;24198;1351;3026487;-57
2021/12/11 00:18:50;;;;;;;10.60;8.60;;;;;;;9.23;72.96;99754.78;24478;1358;3051499;-57
2021/12/11 00:21:20;;;;;;;12.70;8.50;;;;;;;9.24;72.70;99759.75;24553;1352;3026599;-56
2021/12/11 00:24:03;;;;;;;14.10;9.40;;;;;;;9.05;73.19;99754.05;24489;1355;3027205;-57
2021/12/11 00:26:37;;;;;;;14.60;9.70;;;;;;;8.81;74.08;99749.14;24507;1351;3071345;-58
2021/12/11 00:29:09;;;;;;;11.00;9.00;;;;;;;8.62;74.82;99741.33;24523;1352;3049944;-56
2021/12/11 00:31:44;;;;;;;9.90;7.30;;;;;;;8.46;75.54;99742.75;24532;1359;3026646;-58
2021/12/11 00:34:14;;;;;;;11.60;7.40;;;;;;;9.01;74.05;99739.25;24506;1352;3051769;-56
2021/12/11 00:36:55;;;;;;;12.30;8.30;;;;;;;9.34;72.83;99734.97;24515;1352;3027081;-58
2021/12/11 00:39:24;;;;;;;13.30;8.60;;;;;;;9.34;72.42;99733.41;24496;1356;3052668;-59
2021/12/11 00:41:55;;;;;;;15.90;9.10;;;;;;;9.20;72.74;99733.04;24562;1349;3027004;-58
2021/12/11 00:44:37;;;;;;;13.40;8.50;;;;;;;8.79;74.00;99730.18;24555;1358;3027246;-61
2021/12/11 00:47:14;;;;;;;14.60;10.00;;;;;;;8.62;74.92;99733.45;24522;1358;3073358;-56
2021/12/11 00:49:49;;;;;;;18.80;10.00;;;;;;;8.44;75.72;99737.45;24496;1349;3047549;-57
2021/12/11 00:52:26;;;;;;;11.40;8.20;;;;;;;8.38;75.87;99739.42;24506;1351;3055427;-58
2021/12/11 00:54:56;;;;;;;12.80;8.20;;;;;;;8.83;74.96;99734.73;24520;1358;3055598;-57
2021/12/11 00:57:25;;;;;;;12.70;8.10;;;;;;;9.11;73.74;99725.61;24494;1356;3028492;-56
2021/12/11 01:00:00;;;;;;;16.00;9.10;;;;;;;9.01;73.67;99727.35;24486;1351;3026305;-57
2021/12/11 01:02:29;;;;;;;12.90;9.20;;;;;;;8.90;73.86;99718.67;24524;1357;3055532;-58
2021/12/11 01:04:58;;;;;;;13.00;9.00;;;;;;;8.61;74.81;99732.45;24520;1352;3026506;-61
2021/12/11 01:07:31;;;;;;;12.60;9.80;;;;;;;8.38;75.72;99726.36;24490;1351;3048971;-58
2021/12/11 01:10:22;;;;;;;15.50;9.90;;;;;;;8.11;76.76;99724.65;24510;1356;3055966;-59
2021/12/11 01:13:00;;;;;;;10.70;7.40;;;;;;;8.03;77.25;99723.78;24523;1353;3051697;-57
2021/12/11 01:15:31;;;;;;;14.20;7.70;;;;;;;8.59;75.54;99717.35;24505;1352;3067231;-59
2021/12/11 01:21:02;;;;;;;11.30;7.60;;;;;;;8.83;74.04;99708.55;24505;1352;3054839;-57
2021/12/11 01:26:05;;;;;;;12.40;7.80;;;;;;;8.18;75.68;99716.46;24494;1358;3026436;-55
2021/12/11 01:28:37;;;;;;;13.00;8.60;;;;;;;8.13;75.77;99709.19;24483;1361;3026915;-59
2021/12/11 01:31:08;;;;;;;10.00;6.60;;;;;;;7.89;76.90;99715.38;24476;1355;3027046;-57
2021/12/11 01:33:37;;;;;;;8.60;6.50;;;;;;;8.29;75.72;99707.79;24453;1352;3056414;-58
2021/12/11 01:36:06;;;;;;;9.60;6.10;;;;;;;8.50;74.60;99700.88;24462;1352;3026740;-57
2021/12/11 01:38:36;;;;;;;12.80;6.80;;;;;;;8.54;74.24;99694.36;24535;1359;3054259;-56
2021/12/11 01:41:07;;;;;;;8.40;6.60;;;;;;;8.40;74.35;99696.63;24484;1352;3026717;-54
2021/12/11 01:43:37;;;;;;;10.50;6.90;;;;;;;8.11;75.21;99692.02;24516;1351;3054884;-57
2021/12/11 01:46:06;;;;;;;10.30;6.70;;;;;;;8.00;75.61;99692.52;24486;1352;3028489;-55
2021/12/11 01:48:42;;;;;;;22.80;8.30;;;;;;;7.88;75.97;99683.32;24514;1356;3026506;-57
2021/12/11 01:51:23;;;;;;;11.30;6.30;;;;;;;7.79;76.60;99695.77;24513;1352;3049598;-56
2021/12/11 01:54:06;;;;;;;10.10;6.30;;;;;;;8.27;75.52;99696.16;24483;1352;3053685;-56
2021/12/11 01:56:35;;;;;;;10.40;8.20;;;;;;;8.45;74.51;99695.68;24532;1355;3054383;-56
2021/12/11 01:59:07;;;;;;;11.10;7.40;;;;;;;8.40;74.54;99697.13;24538;1351;3026497;-56
2021/12/11 02:01:40;;;;;;;10.80;7.40;;;;;;;8.15;75.38;99701.95;24544;1355;3056092;-55
2021/12/11 02:04:11;;;;;;;12.40;8.20;;;;;;;7.95;75.77;99699.57;24508;1351;3026731;-56
2021/12/11 02:06:43;;;;;;;14.60;7.40;;;;;;;7.70;76.51;99702.23;24521;1352;3026285;-56
2021/12/11 02:09:19;;;;;;;9.50;6.00;;;;;;;7.53;77.37;99695.01;24515;1358;3027078;-59
2021/12/11 02:11:51;;;;;;;12.50;6.60;;;;;;;8.06;75.58;99690.66;24527;1353;3052399;-57
2021/12/11 02:14:26;;;;;;;9.60;6.80;;;;;;;8.33;74.22;99687.52;24526;1359;3026367;-58
2021/12/11 02:16:55;;;;;;;14.40;7.70;;;;;;;8.24;73.98;99688.08;24493;1352;3056018;-58
2021/12/11 02:19:30;;;;;;;12.00;7.30;;;;;;;8.00;74.74;99686.58;24531;1357;3026377;-57
2021/12/11 02:22:02;;;;;;;10.60;7.30;;;;;;;7.61;75.71;99694.98;24492;1352;3052758;-55
2021/12/11 02:24:34;;;;;;;10.90;7.20;;;;;;;7.47;76.34;99695.27;24546;1351;3026699;-56
2021/12/11 02:27:20;;;;;;;11.50;7.20;;;;;;;7.41;76.25;99696.23;24518;1358;3026477;-57
2021/12/11 02:29:59;;;;;;;11.20;6.00;;;;;;;7.31;76.84;99693.70;24482;1359;3053261;-55
2021/12/11 02:32:39;;;;;;;9.20;6.10;;;;;;;7.86;75.20;99687.23;24504;1351;3055232;-58
2021/12/11 02:35:18;;;;;;;10.80;6.50;;;;;;;7.98;74.36;99688.25;24506;1358;3055000;-55
2021/12/11 02:37:58;;;;;;;15.30;7.50;;;;;;;7.84;74.76;99693.77;24532;1352;3056639;-57
2021/12/11 02:40:35;;;;;;;10.90;7.20;;;;;;;7.62;75.52;99692.30;24507;1357;3050811;-56
2021/12/11 02:43:06;;;;;;;21.20;8.30;;;;;;;7.46;75.96;99697.94;24524;1359;3055603;-56
2021/12/11 02:45:42;;;;;;;15.20;8.60;;;;;;;7.20;76.84;99705.48;24529;1351;3026992;-56
2021/12/11 02:48:46;;;;;;;14.40;6.90;;;;;;;7.09;77.49;99706.65;24472;1352;3070304;-59
2021/12/11 02:51:39;;;;;;;9.30;6.30;;;;;;;7.56;76.12;99701.14;24505;1359;3050926;-58
2021/12/11 02:54:18;;;;;;;12.50;7.30;;;;;;;7.74;74.88;99702.59;24545;1351;3054926;-58
2021/12/11 02:56:52;;;;;;;12.50;7.10;;;;;;;7.68;74.85;99703.05;24484;1358;3054968;-60
2021/12/11 02:59:25;;;;;;;11.20;7.30;;;;;;;7.42;75.71;99704.89;24505;1359;3026748;-57
2021/12/11 03:02:18;;;;;;;10.90;7.10;;;;;;;7.23;76.55;99706.77;24450;1357;3026421;-56
2021/12/11 03:04:52;;;;;;;12.40;7.20;;;;;;;7.05;77.45;99707.52;24504;1358;3052732;-58
2021/12/11 03:07:26;;;;;;;11.10;6.70;;;;;;;6.92;78.14;99712.77;24483;1356;3054423;-58
2021/12/11 03:09:56;;;;;;;11.60;7.10;;;;;;;7.34;76.70;99700.34;24487;1355;3070627;-60
2021/12/11 03:12:25;;;;;;;11.60;7.40;;;;;;;7.62;75.13;99699.63;24514;1352;3026701;-54
2021/12/11 03:14:54;;;;;;;14.40;7.20;;;;;;;7.60;74.99;99698.68;24481;1352;3027111;-58
2021/12/11 03:17:25;;;;;;;15.20;7.50;;;;;;;7.29;76.08;99700.59;24479;1352;3028432;-57
2021/12/11 03:19:55;;;;;;;16.30;9.80;;;;;;;7.16;76.35;99697.49;24497;1359;3051780;-58
2021/12/11 03:22:33;;;;;;;15.50;10.20;;;;;;;7.01;76.82;99698.63;24509;1356;3025966;-58
2021/12/11 03:25:14;;;;;;;10.10;6.70;;;;;;;6.84;77.72;99702.30;24449;1358;3071624;-58
2021/12/11 03:27:44;;;;;;;9.20;6.00;;;;;;;7.25;76.41;99701.11;24475;1352;3052036;-56
2021/12/11 03:30:16;;;;;;;10.70;6.80;;;;;;;7.55;75.06;99703.09;24486;1351;3026778;-55
2021/12/11 03:32:46;;;;;;;12.70;6.90;;;;;;;7.31;75.53;99701.36;24537;1349;3026563;-55
2021/12/11 03:35:15;;;;;;;9.80;6.30;;;;;;;6.97;76.61;99709.05;24510;1356;3026990;-60
2021/12/11 03:37:44;;;;;;;10.90;7.10;;;;;;;6.86;76.96;99711.08;24497;1351;3026648;-57
2021/12/11 03:40:13;;;;;;;12.90;7.00;;;;;;;6.57;77.60;99705.66;24496;1359;3052056;-59
2021/12/11 03:42:44;;;;;;;10.80;5.80;;;;;;;6.53;77.77;99698.52;24497;1351;3028444;-58
2021/12/11 03:45:17;;;;;;;10.30;5.30;;;;;;;6.96;76.24;99703.37;24518;1359;3051893;-57
2021/12/11 03:47:49;;;;;;;9.20;5.80;;;;;;;7.26;74.93;99695.83;24515;1352;3026866;-58
2021/12/11 03:50:19;;;;;;;12.70;6.10;;;;;;;7.22;74.60;99699.81;24515;1351;3028058;-57
2021/12/11 03:52:49;;;;;;;12.60;6.50;;;;;;;7.06;75.11;99699.29;24485;1352;3026941;-56
2021/12/11 03:55:23;;;;;;;9.50;6.10;;;;;;;6.85;75.93;99705.91;24541;1351;3026459;-55
2021/12/11 03:58:00;;;;;;;11.30;6.40;;;;;;;6.60;76.78;99706.76;24517;1352;3050966;-55
2021/12/11 04:00:37;;;;;;;10.20;6.30;;;;;;;6.40;77.35;99705.47;24505;1352;3071737;-56
2021/12/11 04:03:07;;;;;;;9.80;5.30;;;;;;;6.24;77.90;99703.98;24526;1352;3049106;-54
2021/12/11 04:05:38;;;;;;;11.30;5.70;;;;;;;6.79;76.31;99702.50;24499;1352;3026897;-59
2021/12/11 04:08:10;;;;;;;11.40;7.90;;;;;;;7.20;74.49;99692.06;24512;1351;3026325;-56
2021/12/11 04:10:38;;;;;;;10.00;5.80;;;;;;;6.98;74.76;99691.44;24496;1352;3026966;-57
2021/12/11 04:13:10;;;;;;;11.80;6.00;;;;;;;6.69;75.35;99693.15;24524;1351;3027877;-57
2021/12/11 04:15:39;;;;;;;14.70;7.00;;;;;;;6.51;76.12;99693.20;24518;1351;3028480;-56
2021/12/11 04:18:08;;;;;;;11.80;7.30;;;;;;;6.52;76.26;99693.83;24502;1356;3028805;-55
2021/12/11 04:20:39;;;;;;;17.60;9.50;;;;;;;6.35;76.82;99687.73;24508;1356;3026881;-58
2021/12/11 04:23:11;;;;;;;11.50;6.90;;;;;;;6.09;77.66;99700.55;24513;1352;3027499;-58
2021/12/11 04:25:42;;;;;;;11.60;6.30;;;;;;;6.61;76.11;99700.44;24515;1354;3028783;-56
2021/12/11 04:28:11;;;;;;;11.80;7.20;;;;;;;6.95;74.74;99695.25;24515;1352;3031079;-58
2021/12/11 04:30:42;;;;;;;16.00;8.70;;;;;;;6.80;74.82;99690.29;24492;1358;3031163;-59
2021/12/11 04:33:12;;;;;;;14.10;7.80;;;;;;;6.63;75.17;99695.48;24504;1352;3026854;-59
2021/12/11 04:35:43;;;;;;;15.30;7.90;;;;;;;6.32;76.14;99690.09;24496;1356;3027037;-56
2021/12/11 04:38:13;;;;;;;15.90;7.00;;;;;;;5.99;76.99;99692.40;24524;1359;3027130;-58
2021/12/11 04:40:44;;;;;;;10.80;6.30;;;;;;;5.73;77.73;99690.39;24545;1352;3026112;-57
2021/12/11 04:43:16;;;;;;;10.50;5.70;;;;;;;5.58;78.39;99691.13;24509;1351;3027398;-57
2021/12/11 04:46:07;;;;;;;10.80;5.50;;;;;;;6.10;76.82;99677.23;24546;1355;3026772;-58
2021/12/11 04:51:49;;;;;;;11.90;6.20;;;;;;;6.05;75.90;99677.41;24464;1359;3059188;-59
2021/12/11 04:55:08;;;;;;;16.10;6.20;;;;;;;6.04;75.83;99688.41;24490;1356;3052652;-57
2021/12/11 05:10:23;;;;;;;12.60;5.20;;;;;;;6.44;74.29;99694.52;24486;1357;3026750;-55
2021/12/11 05:12:54;;;;;;;12.50;8.50;;;;;;;6.25;74.61;99698.75;24519;1352;3059563;-56
2021/12/11 05:15:31;;;;;;;14.40;8.70;;;;;;;5.99;75.64;99692.59;24512;1351;3028854;-57
2021/12/11 05:18:01;;;;;;;16.80;9.60;;;;;;;5.73;76.61;99687.30;24497;1356;3052144;-57
2021/12/11 05:20:32;;;;;;;14.90;7.60;;;;;;;5.66;77.08;99690.66;24489;1356;3030358;-56
2021/12/11 05:23:01;;;;;;;9.40;5.80;;;;;;;5.44;77.34;99689.91;24514;1352;3026578;-55
2021/12/11 05:25:30;;;;;;;12.70;4.90;;;;;;;5.76;76.35;99684.38;24490;1352;3027011;-59
2021/12/11 05:27:59;;;;;;;11.60;4.70;;;;;;;5.98;75.14;99680.80;24510;1355;3053684;-55
2021/12/11 05:30:32;;;;;;;8.90;5.70;;;;;;;5.77;75.52;99684.52;24523;1353;3026414;-58
2021/12/11 05:33:01;;;;;;;13.60;7.80;;;;;;;5.65;76.08;99687.77;24516;1352;3055947;-57
2021/12/11 05:35:33;;;;;;;15.90;8.00;;;;;;;5.52;76.63;99690.30;24531;1357;3026924;-58
2021/12/11 05:38:04;;;;;;;9.50;6.60;;;;;;;5.25;77.44;99688.33;24503;1357;3049501;-59
2021/12/11 05:40:34;;;;;;;12.50;6.20;;;;;;;5.10;77.83;99706.19;24486;1354;3028444;-56
2021/12/11 05:43:03;;;;;;;12.10;5.90;;;;;;;5.01;78.34;99712.73;24514;1356;3026565;-58
2021/12/11 05:45:33;;;;;;;9.90;5.70;;;;;;;5.54;76.93;99707.41;24499;1356;3026287;-58
2021/12/11 05:48:02;;;;;;;13.60;5.90;;;;;;;5.76;75.30;99709.77;24501;1356;3026388;-57
2021/12/11 05:50:35;;;;;;;9.10;6.00;;;;;;;5.73;75.10;99708.14;24447;1358;3053980;-57
2021/12/11 05:53:04;;;;;;;8.60;5.20;;;;;;;5.58;75.53;99706.44;24506;1358;3027080;-58
2021/12/11 05:55:34;;;;;;;8.40;5.50;;;;;;;5.26;76.62;99712.06;24547;1351;3026961;-61
2021/12/11 05:58:10;;;;;;;14.70;7.00;;;;;;;5.16;77.21;99710.14;24545;1358;3027751;-59
2021/12/11 06:00:44;;;;;;;11.70;6.30;;;;;;;4.94;77.83;99705.16;24526;1352;3051412;-56
2021/12/11 06:03:13;;;;;;;8.80;4.90;;;;;;;4.99;77.65;99709.32;24493;1351;3058774;-57
2021/12/11 06:05:42;;;;;;;10.10;4.60;;;;;;;5.30;76.56;99700.27;24495;1356;3026394;-58
2021/12/11 06:08:12;;;;;;;8.00;4.00;;;;;;;5.67;75.06;99701.56;24485;1351;3052381;-58
2021/12/11 06:10:41;;;;;;;7.40;4.60;;;;;;;5.69;74.47;99702.71;24493;1356;3027520;-57
2021/12/11 06:13:10;;;;;;;11.70;6.50;;;;;;;5.55;74.87;99711.76;24494;1351;3025840;-56
2021/12/11 06:15:52;;;;;;;14.40;6.80;;;;;;;5.30;75.83;99711.75;24538;1359;3055467;-60
2021/12/11 06:18:22;;;;;;;11.80;6.40;;;;;;;5.05;76.64;99724.05;24521;1358;3026279;-59
2021/12/11 06:20:51;;;;;;;11.20;5.00;;;;;;;4.95;77.08;99743.16;24559;1356;3026926;-60
2021/12/11 06:23:22;;;;;;;7.50;4.20;;;;;;;4.84;77.35;99755.16;24515;1359;3052951;-58
2021/12/11 06:25:51;;;;;;;10.00;4.60;;;;;;;5.37;76.20;99766.92;24487;1355;3026846;-60
2021/12/11 06:28:20;;;;;;;10.00;4.90;;;;;;;5.68;74.42;99764.61;24516;1356;3026801;-59
2021/12/11 06:30:49;;;;;;;10.50;5.80;;;;;;;5.76;73.99;99757.91;24500;1352;3026988;-60
2021/12/11 06:33:21;;;;;;;12.60;5.80;;;;;;;5.64;74.26;99766.68;24493;1354;3056923;-58
2021/12/11 06:36:11;;;;;;;10.70;5.50;;;;;;;5.48;74.60;99779.23;24495;1351;3027512;-60
2021/12/11 06:38:41;;;;;;;9.60;5.10;;;;;;;5.30;75.38;99771.66;24493;1351;3053064;-56
2021/12/11 06:41:11;;;;;;;8.40;5.10;;;;;;;5.34;75.44;99772.42;24501;1352;3026289;-58
2021/12/11 06:43:40;;;;;;;11.20;6.20;;;;;;;5.13;76.25;99768.80;24494;1352;3027134;-56
2021/12/11 06:46:09;;;;;;;13.40;6.40;;;;;;;5.07;76.42;99770.55;24501;1352;3026602;-59
2021/12/11 06:48:38;;;;;;;10.20;4.50;;;;;;;5.48;75.59;99765.52;24501;1352;3028415;-61
2021/12/11 06:51:08;;;;;;;9.50;5.10;;;;;;;5.97;73.65;99769.19;24484;1352;3069450;-56
2021/12/11 06:53:40;;;;;;;11.00;5.40;;;;;;;5.78;73.72;99761.49;24495;1356;3026545;-56
2021/12/11 06:56:10;;;;;;;9.30;5.30;;;;;;;5.62;73.93;99771.60;24496;1358;3026435;-60
2021/12/11 06:58:39;;;;;;;9.20;4.70;;;;;;;5.40;74.62;99777.23;24520;1351;3029059;-60
2021/12/11 07:01:08;;;;;;;8.20;4.60;;;;;;;5.14;75.49;99778.11;24518;1352;3026086;-59
2021/12/11 07:03:37;;;;;;;13.40;5.70;;;;;;;5.02;75.84;99777.11;24550;1357;3051139;-57
2021/12/11 07:06:08;;;;;;;9.00;4.00;;;;;;;4.96;76.32;99777.67;24514;1352;3026368;-59
2021/12/11 07:08:38;;;;;;;9.40;4.30;;;;;;;5.44;75.28;99776.23;24511;1352;3026602;-56
2021/12/11 07:11:08;;;;;;;8.70;4.80;;;;;;;5.92;73.39;99773.16;24506;1359;3026954;-59
2021/12/11 07:13:38;;;;;;;8.70;5.20;;;;;;;5.71;73.82;99769.06;24511;1359;3026482;-59
2021/12/11 07:16:07;;;;;;;12.50;5.10;;;;;;;5.36;74.66;99766.96;24440;1355;3026511;-57
2021/12/11 07:18:37;;;;;;;13.60;6.10;;;;;;;5.20;75.35;99784.52;24497;1352;3026516;-57
2021/12/11 07:21:06;;;;;;;16.20;6.80;;;;;;;5.28;75.17;99782.20;24482;1352;3054739;-59
2021/12/11 07:23:36;;;;;;;11.90;5.70;;;;;;;5.19;75.62;99776.92;24543;1358;3026045;-57
2021/12/11 07:26:14;;;;;;;8.20;4.40;;;;;;;5.07;76.27;99774.89;24518;1356;3050043;-59
2021/12/11 07:28:46;;;;;;;9.70;4.80;;;;;;;5.60;74.85;99772.04;24519;1351;3057341;-60
2021/12/11 07:31:15;;;;;;;16.20;5.30;;;;;;;6.00;73.32;99769.39;24490;1352;3026039;-60
2021/12/11 07:33:45;;;;;;;12.90;5.60;;;;;;;6.00;72.82;99768.88;24524;1357;3026780;-61
2021/12/11 07:36:14;;;;;;;9.40;5.20;;;;;;;5.83;73.25;99772.27;24542;1352;3026777;-60
2021/12/11 07:38:43;;;;;;;11.10;5.50;;;;;;;5.68;73.86;99789.67;24557;1352;3050983;-56
2021/12/11 07:41:13;;;;;;;10.90;5.50;;;;;;;5.55;74.36;99782.46;24495;1352;3026422;-59
2021/12/11 07:43:42;;;;;;;13.20;6.20;;;;;;;5.40;74.87;99788.04;24539;1358;3052051;-60
2021/12/11 07:46:13;;;;;;;9.90;5.40;;;;;;;5.25;75.31;99802.23;24498;1351;3027554;-60
2021/12/11 07:48:43;;;;;;;8.80;4.60;;;;;;;5.18;75.83;99798.46;24519;1351;3048414;-58
2021/12/11 07:51:13;;;;;;;8.20;4.50;;;;;;;5.74;74.35;99795.00;24506;1355;3030476;-58
2021/12/11 07:53:42;;;;;;;10.10;5.80;;;;;;;6.11;72.78;99798.58;24485;1351;3026927;-57
2021/12/11 07:56:11;;;;;;;12.20;5.20;;;;;;;6.12;72.38;99796.27;24519;1356;3026399;-59
2021/12/11 07:58:40;;;;;;;9.90;5.20;;;;;;;5.90;72.72;99796.02;24509;1354;3026626;-59
2021/12/11 08:01:09;;;;;;;13.30;5.30;;;;;;;5.76;73.26;99802.23;24508;1352;3050467;-56
2021/12/11 08:03:38;;;;;;;11.10;5.20;;;;;;;5.60;73.93;99808.02;24504;1356;3026331;-62
2021/12/11 08:06:09;;;;;;;12.20;6.00;;;;;;;5.44;74.40;99811.52;24552;1358;3027284;-57
2021/12/11 08:08:40;;;;;;;10.10;5.30;;;;;;;5.32;74.98;99807.04;24522;1352;3026516;-57
2021/12/11 08:11:13;;;;;;;9.60;4.30;;;;;;;5.27;75.39;99803.90;24529;1352;3026325;-61
2021/12/11 08:13:46;;;;;;;7.00;3.80;;;;;;;5.84;73.78;99795.35;24524;1352;3059520;-59
2021/12/11 08:16:19;;;;;;;13.00;4.70;;;;;;;6.31;71.69;99786.35;24256;1352;3366444;-60
2021/12/11 08:18:50;;;;;;;10.40;4.50;;;;;;;6.30;71.65;99769.36;24517;1352;3026822;-59
2021/12/11 08:21:20;;;;;;;8.40;5.10;;;;;;;6.20;71.69;99750.25;24552;1358;3027252;-59
2021/12/11 08:23:54;;;;;;;9.30;4.30;;;;;;;5.84;72.99;99750.35;24509;1358;3026804;-61
2021/12/11 08:26:26;;;;;;;7.90;5.20;;;;;;;5.82;73.15;99760.12;24503;1358;3051721;-58
2021/12/11 08:28:56;;;;;;;8.20;4.80;;;;;;;5.60;73.93;99772.21;24512;1358;3026597;-59
2021/12/11 08:31:25;;;;;;;9.90;5.50;;;;;;;5.57;74.14;99782.05;24536;1351;3026783;-60
2021/12/11 08:33:54;;;;;;;10.90;6.10;;;;;;;5.55;74.10;99782.80;24524;1352;3026607;-58
2021/12/11 08:36:23;;;;;;;8.70;4.20;;;;;;;5.49;74.46;99788.73;24519;1359;3054647;-58
2021/12/11 08:38:53;;;;;;;6.60;3.90;;;;;;;6.00;73.12;99782.80;24488;1357;3026347;-59
2021/12/11 08:41:23;;;;;;;11.10;4.80;;;;;;;6.48;71.24;99769.89;24506;1356;3030481;-59
2021/12/11 08:43:58;;;;;;;13.20;6.90;;;;;;;6.57;70.76;99758.73;24506;1359;3027355;-57
2021/12/11 08:46:28;;;;;;;13.10;7.80;;;;;;;6.29;71.42;99742.23;24511;1353;3053295;-60
2021/12/11 08:48:59;;;;;;;13.60;7.20;;;;;;;6.14;71.93;99736.71;24504;1352;3027020;-59
2021/12/11 08:51:41;;;;;;;8.60;5.40;;;;;;;5.91;72.62;99735.13;24477;1351;3026698;-60
2021/12/11 08:54:10;;;;;;;8.50;5.30;;;;;;;5.83;72.75;99755.23;24512;1352;3049593;-61
2021/12/11 08:56:41;;;;;;;12.30;4.70;;;;;;;5.69;73.16;99743.20;24646;1358;3027577;-60
2021/12/11 08:59:13;;;;;;;9.40;5.00;;;;;;;5.60;73.60;99746.66;24505;1352;3026562;-58
2021/12/11 09:01:58;;;;;;;6.60;4.50;;;;;;;5.60;73.78;99747.20;24601;1352;3028939;-59
2021/12/11 09:04:29;;;;;;;;;;;;;;;6.05;72.60;99736.85;24507;1358;3054482;-60
2021/12/11 09:07:04;;;;;;;11.90;5.70;;;;;;;6.42;71.03;99740.54;24504;1351;3026982;-60
2021/12/11 09:09:35;;;;;;;;;;;;;;;6.45;70.45;99739.53;24515;1351;3049917;-60
2021/12/11 09:12:21;;;;;;;8.40;5.40;;;;;;;6.24;71.20;99738.09;24484;1356;3028340;-56
2021/12/11 09:14:53;;;;;;;9.60;5.60;;;;;;;6.11;71.55;99731.78;24485;1358;3049028;-58
2021/12/11 09:17:33;;;;;;;10.40;5.70;;;;;;;5.92;72.19;99719.26;24489;1361;3026789;-59
2021/12/11 09:20:34;;;;;;;11.30;6.00;;;;;;;5.85;72.39;99716.23;24527;1352;3055207;-58
2021/12/11 09:23:06;;;;;;;8.90;5.80;;;;;;;5.59;73.62;99722.20;24512;1352;3059596;-57
2021/12/11 09:25:46;;;;;;;10.60;6.80;;;;;;;5.46;73.98;99736.21;24507;1351;3026394;-60
2021/12/11 09:28:26;;;;;;;11.50;6.00;;;;;;;5.49;74.22;99744.61;24513;1352;3055618;-58
2021/12/11 09:31:07;;;;;;;10.20;5.20;;;;;;;6.23;72.30;99742.48;24511;1351;3054072;-60
2021/12/11 09:33:45;;;;;;;11.00;5.00;;;;;;;6.69;70.25;99753.75;24487;1359;3071529;-59
2021/12/11 09:36:19;;;;;;;9.30;5.00;;;;;;;6.59;70.16;99763.02;24495;1352;3049035;-60
2021/12/11 09:38:51;;;;;;;9.10;4.60;;;;;;;6.44;70.52;99761.85;24507;1356;3028863;-59
2021/12/11 09:41:26;;;;;;;9.60;5.30;;;;;;;6.21;71.04;99761.68;24552;1352;3027263;-59
2021/12/11 09:44:16;;;;;;;13.40;5.80;;;;;;;5.99;71.86;99768.73;24515;1353;3056461;-59
2021/12/11 09:46:53;;;;;;;16.60;6.90;;;;;;;5.91;72.25;99764.34;24519;1352;3050051;-59
2021/12/11 09:49:25;;;;;;;11.70;6.30;;;;;;;5.78;72.94;99771.07;24518;1358;3053403;-60
2021/12/11 09:52:03;;;;;;;11.80;6.40;;;;;;;5.71;73.34;99771.14;24488;1358;3026078;-60
2021/12/11 09:54:34;;;;;;;11.40;4.30;;;;;;;5.66;73.48;99768.88;24509;1358;3071542;-60
2021/12/11 09:57:06;;;;;;;9.10;4.30;;;;;;;6.16;72.05;99762.71;24499;1352;3026833;-59
2021/12/11 09:59:37;;;;;;;8.70;4.40;;;;;;;6.58;70.55;99758.89;24517;1352;3027182;-57
2021/12/11 10:02:09;;;;;;;8.80;5.20;;;;;;;6.64;69.91;99757.61;24509;1352;3026830;-59
2021/12/11 10:04:52;;;;;;;9.20;5.20;;;;;;;6.33;70.58;99753.90;24521;1355;3026438;-58
2021/12/11 10:07:31;;;;;;;9.00;5.60;;;;;;;5.87;72.07;99756.98;24477;1355;3049753;-60
2021/12/11 10:10:23;;;;;;;7.40;5.10;;;;;;;5.68;72.94;99767.05;24518;1352;3055949;-59
2021/12/11 10:12:55;;;;;;;8.90;5.50;;;;;;;5.66;73.20;99766.63;24520;1358;3054628;-61
2021/12/11 10:15:30;;;;;;;9.30;5.00;;;;;;;5.60;73.41;99773.09;24505;1351;3026543;-57
2021/12/11 10:18:02;;;;;;;12.30;6.40;;;;;;;5.46;73.96;99766.27;24472;1351;3049134;-58
2021/12/11 10:20:41;;;;;;;9.30;4.20;;;;;;;5.44;74.14;99760.25;24487;1358;3026071;-59
2021/12/11 10:23:12;;;;;;;10.50;4.60;;;;;;;6.18;72.20;99751.70;24484;1358;3054240;-60
2021/12/11 10:25:42;;;;;;;10.10;5.20;;;;;;;6.66;70.32;99763.77;24561;1358;3026677;-56
2021/12/11 10:28:12;;;;;;;8.90;4.70;;;;;;;6.76;69.73;99765.83;24486;1352;3026305;-58
2021/12/11 10:30:44;;;;;;;13.80;5.70;;;;;;;6.59;70.09;99772.57;24515;1352;3028758;-59
2021/12/11 10:33:14;;;;;;;8.80;5.00;;;;;;;6.47;70.47;99778.61;24506;1351;3026920;-59
2021/12/11 10:35:46;;;;;;;11.80;6.80;;;;;;;6.24;71.27;99779.30;24471;1355;3028514;-58
2021/12/11 10:38:17;;;;;;;12.70;6.10;;;;;;;6.08;72.14;99783.23;24490;1352;3026901;-59
2021/12/11 10:40:49;;;;;;;11.60;5.90;;;;;;;6.10;72.20;99784.02;24560;1355;3028115;-57
2021/12/11 10:43:28;;;;;;;9.70;6.60;;;;;;;6.01;72.31;99783.45;24476;1356;3026848;-59
2021/12/11 10:45:57;;;;;;;13.80;7.30;;;;;;;5.83;73.09;99787.74;24481;1355;3058725;-60
2021/12/11 10:48:28;;;;;;;9.20;5.00;;;;;;;5.92;73.31;99789.33;24509;1352;3026802;-60
2021/12/11 10:51:04;;;;;;;11.20;4.70;;;;;;;6.48;72.00;99787.48;24488;1356;3027338;-59
2021/12/11 10:53:35;;;;;;;11.70;5.80;;;;;;;6.95;70.01;99790.33;24518;1355;3054197;-59
2021/12/11 10:56:05;;;;;;;11.40;5.90;;;;;;;6.94;69.67;99793.66;24506;1355;3028171;-57
2021/12/11 10:58:37;;;;;;;10.00;6.10;;;;;;;6.83;69.94;99794.63;24516;1352;3028488;-62
2021/12/11 11:01:14;;;;;;;12.20;6.40;;;;;;;6.58;70.60;99805.16;24525;1355;3027554;-60
2021/12/11 11:03:46;;;;;;;9.50;5.30;;;;;;;6.46;71.09;99815.20;24503;1358;3055471;-61
2021/12/11 11:06:15;;;;;;;8.80;5.00;;;;;;;6.20;71.75;99820.70;24517;1355;3026809;-61
2021/12/11 11:08:46;;;;;;;11.90;5.30;;;;;;;6.02;72.45;99827.93;24520;1355;3026995;-59
2021/12/11 11:11:17;;;;;;;8.40;5.90;;;;;;;6.07;72.36;99828.49;24500;1358;3026598;-60
2021/12/11 11:13:47;;;;;;;9.50;5.90;;;;;;;5.97;72.70;99833.65;24580;1355;3026123;-60
2021/12/11 11:16:17;;;;;;;8.40;4.60;;;;;;;5.80;73.24;99840.34;24463;1354;3027487;-59
2021/12/11 11:19:00;;;;;;;9.00;4.30;;;;;;;6.36;71.96;99839.21;24486;1361;3052407;-59
2021/12/11 11:21:42;;;;;;;8.90;4.20;;;;;;;6.80;70.01;99836.88;24996;1355;3026615;-60
2021/12/11 11:24:13;;;;;;;9.60;5.50;;;;;;;6.68;70.02;99835.60;24770;1358;3069456;-59
2021/12/11 11:26:44;;;;;;;10.20;5.50;;;;;;;6.61;70.21;99840.41;24494;1358;3026807;-60
2021/12/11 11:29:20;;;;;;;7.90;4.90;;;;;;;6.39;70.63;99839.81;24507;1355;3026466;-58
2021/12/11 11:31:52;;;;;;;12.30;5.90;;;;;;;6.37;70.81;99845.98;24475;1353;3052113;-59
2021/12/11 11:34:22;;;;;;;11.40;5.80;;;;;;;6.20;71.45;99845.92;24462;1355;3026504;-59
2021/12/11 11:36:51;;;;;;;12.70;5.50;;;;;;;5.97;72.29;99849.51;24476;1354;3026854;-57
2021/12/11 11:39:20;;;;;;;9.60;5.70;;;;;;;5.83;72.99;99850.16;24497;1355;3026725;-60
2021/12/11 11:41:55;;;;;;;12.60;5.70;;;;;;;5.75;73.24;99853.72;24496;1355;3026308;-60
2021/12/11 11:44:26;;;;;;;7.80;4.40;;;;;;;5.63;73.20;99855.69;24492;1354;3068982;-58
2021/12/11 11:46:57;;;;;;;9.10;4.40;;;;;;;6.42;71.29;99851.55;24557;1354;3026611;-57
2021/12/11 11:49:26;;;;;;;9.50;5.40;;;;;;;6.78;69.47;99841.52;24496;1355;3026060;-57
2021/12/11 11:52:05;;;;;;;9.10;4.70;;;;;;;6.71;69.05;99846.80;24453;1359;3026896;-61
2021/12/11 11:54:34;;;;;;;6.80;4.40;;;;;;;6.50;69.41;99845.50;24466;1358;3054905;-56
2021/12/11 11:57:21;;;;;;;11.50;4.20;;;;;;;6.31;69.88;99846.37;24467;1354;3052222;-59
2021/12/11 11:59:51;;;;;;;10.10;4.50;;;;;;;6.14;70.36;99853.58;24493;1361;3055780;-59
2021/12/11 12:02:22;;;;;;;7.10;4.40;;;;;;;5.93;71.11;99859.91;24482;1355;3026222;-59
2021/12/11 12:04:52;;;;;;;10.30;4.80;;;;;;;5.82;71.55;99862.88;24467;1355;3027466;-59
2021/12/11 12:07:26;;;;;;;8.30;4.60;;;;;;;5.72;72.17;99866.87;24476;1361;3027259;-59